Time,TemperatureF,DewpointF,PressureIn,WindDirection,WindDirectionDegrees,WindSpeedMPH,WindSpeedGustMPH,Humidity,HourlyPrecipIn,Conditions,Clouds,dailyrainin,SoftwareType,DateUTC
2013-01-14 00:12:00,33.4,30.0,30.20,North,355,2.0,-999.0,87,-99.99,,,0.00,weatherlink.com 1.10,2013-01-14 08:12:00,
2013-01-14 00:27:00,33.3,30.0,30.20,North,355,1.0,-999.0,86,-99.99,,,0.00,weatherlink.com 1.10,2013-01-14 08:27:00,
2013-01-14 00:42:00,33.2,30.0,30.20,North,355,1.0,-999.0,86,-99.99,,,0.00,weatherlink.com 1.10,2013-01-14 08:42:00,
2013-01-14 00:57:00,33.4,30.0,30.20,North,355,2.0,-999.0,86,-99.99,,,0.00,weatherlink.com 1.10,2013-01-14 08:57:00,
2013-01-14 01:12:00,33.4,30.0,30.20,North,350,2.0,-999.0,86,-99.99,,,0.00,weatherlink.com 1.10,2013-01-14 09:12:00,
2013-01-14 01:27:00,33.3,30.0,30.20,North,351,0.0,-999.0,86,-99.99,,,0.00,weatherlink.com 1.10,2013-01-14 09:27:00,
2013-01-14 01:42:00,33.0,29.0,30.21,NNW,334,1.0,-999.0,85,-99.99,,,0.00,weatherlink.com 1.10,2013-01-14 09:42:00,
2013-01-14 01:57:00,32.7,29.0,30.21,NNW,334,2.0,-999.0,86,-99.99,,,0.00,weatherlink.com 1.10,2013-01-14 09:57:00,
2013-01-14 02:12:00,32.5,29.0,30.22,NNW,347,1.0,-999.0,86,-99.99,,,0.00,weatherlink.com 1.10,2013-01-14 10:12:00,
2013-01-14 02:26:00,32.7,29.0,30.22,North,355,2.0,-999.0,87,-99.99,,,0.00,weatherlink.com 1.10,2013-01-14 10:26:00,
2013-01-14 02:42:00,32.5,29.0,30.22,NW,321,3.0,-999.0,86,-99.99,,,0.00,weatherlink.com 1.10,2013-01-14 10:42:00,
2013-01-14 02:57:00,32.1,29.0,30.22,NW,324,3.0,-999.0,87,-99.99,,,0.00,weatherlink.com 1.10,2013-01-14 10:57:00,
2013-01-14 03:12:00,32.1,29.0,30.22,NW,324,3.0,-999.0,87,-99.99,,,0.00,weatherlink.com 1.10,2013-01-14 11:12:00,
2013-01-14 03:27:00,32.3,29.0,30.21,NW,324,4.0,-999.0,87,-99.99,,,0.00,weatherlink.com 1.10,2013-01-14 11:27:00,
2013-01-14 03:41:00,32.7,29.0,30.22,NW,324,4.0,-999.0,87,-99.99,,,0.00,weatherlink.com 1.10,2013-01-14 11:41:00,
2013-01-14 03:56:00,32.9,29.0,30.21,NW,325,2.0,-999.0,86,-99.99,,,0.00,weatherlink.com 1.10,2013-01-14 11:56:00,
2013-01-14 04:12:00,33.0,29.0,30.21,NW,325,4.0,-999.0,84,-99.99,,,0.00,weatherlink.com 1.10,2013-01-14 12:12:00,
2013-01-14 04:26:00,32.9,28.0,30.20,NW,325,2.0,-999.0,83,-99.99,,,0.00,weatherlink.com 1.10,2013-01-14 12:26:00,
2013-01-14 04:41:00,33.0,28.0,30.21,NNW,327,4.0,-999.0,82,-99.99,,,0.00,weatherlink.com 1.10,2013-01-14 12:41:00,
2013-01-14 04:57:00,33.0,28.0,30.21,NNW,327,2.0,-999.0,82,-99.99,,,0.00,weatherlink.com 1.10,2013-01-14 12:57:00,
2013-01-14 05:12:00,33.0,28.0,30.22,NNW,327,3.0,-999.0,83,-99.99,,,0.00,weatherlink.com 1.10,2013-01-14 13:12:00,
2013-01-14 05:26:00,32.9,28.0,30.22,NNW,327,0.0,-999.0,83,-99.99,,,0.00,weatherlink.com 1.10,2013-01-14 13:26:00,
2013-01-14 05:42:00,32.9,28.0,30.22,NNW,327,4.0,-999.0,82,-99.99,,,0.00,weatherlink.com 1.10,2013-01-14 13:42:00,
2013-01-14 05:56:00,33.0,28.0,30.23,NNW,333,2.0,-999.0,82,-99.99,,,0.00,weatherlink.com 1.10,2013-01-14 13:56:00,
2013-01-14 06:11:00,33.1,28.0,30.23,NNW,333,1.0,-999.0,81,-99.99,,,0.00,weatherlink.com 1.10,2013-01-14 14:11:00,
2013-01-14 06:26:00,33.1,28.0,30.24,North,350,4.0,-999.0,80,-99.99,,,0.00,weatherlink.com 1.10,2013-01-14 14:26:00,
2013-01-14 06:42:00,33.2,28.0,30.25,NNW,338,3.0,-999.0,80,-99.99,,,0.00,weatherlink.com 1.10,2013-01-14 14:42:00,
2013-01-14 06:56:00,32.9,27.0,30.27,NNW,341,3.0,-999.0,80,-99.99,,,0.00,weatherlink.com 1.10,2013-01-14 14:56:00,
2013-01-14 07:12:00,32.5,27.0,30.28,NW,317,1.0,-999.0,80,-99.99,,,0.00,weatherlink.com 1.10,2013-01-14 15:12:00,
2013-01-14 07:26:00,32.2,27.0,30.29,NW,318,1.0,-999.0,80,-99.99,,,0.00,weatherlink.com 1.10,2013-01-14 15:26:00,
2013-01-14 07:41:00,32.3,27.0,30.29,NW,319,3.0,-999.0,80,-99.99,,,0.00,weatherlink.com 1.10,2013-01-14 15:41:00,
2013-01-14 07:57:00,32.5,27.0,30.30,North,349,2.0,-999.0,80,-99.99,,,0.00,weatherlink.com 1.10,2013-01-14 15:57:00,
2013-01-14 08:12:00,32.9,27.0,30.30,NNW,343,3.0,-999.0,79,-99.99,,,0.00,weatherlink.com 1.10,2013-01-14 16:12:00,
2013-01-14 08:26:00,33.7,28.0,30.30,North,360,2.0,-999.0,79,-99.99,,,0.00,weatherlink.com 1.10,2013-01-14 16:26:00,
2013-01-14 08:41:00,34.7,29.0,30.30,NNW,348,1.0,-999.0,78,-99.99,,,0.00,weatherlink.com 1.10,2013-01-14 16:41:00,
2013-01-14 08:56:00,35.5,30.0,30.30,NNW,346,1.0,-999.0,79,-99.99,,,0.00,weatherlink.com 1.10,2013-01-14 16:56:00,
2013-01-14 09:11:00,36.2,31.0,30.31,NNW,342,2.0,-999.0,80,-99.99,,,0.00,weatherlink.com 1.10,2013-01-14 17:11:00,
2013-01-14 09:27:00,37.2,32.0,30.32,NNW,342,0.0,-999.0,80,-99.99,,,0.00,weatherlink.com 1.10,2013-01-14 17:27:00,
2013-01-14 09:41:00,38.3,33.0,30.32,NNW,342,0.0,-999.0,81,-99.99,,,0.00,weatherlink.com 1.10,2013-01-14 17:41:00,
2013-01-14 09:56:00,40.5,32.0,30.32,NNW,342,0.0,-999.0,71,-99.99,,,0.00,weatherlink.com 1.10,2013-01-14 17:56:00,
2013-01-14 10:12:00,43.8,34.0,30.33,NNE,15,1.0,-999.0,69,-99.99,,,0.00,weatherlink.com 1.10,2013-01-14 18:12:00,
2013-01-14 10:27:00,47.4,30.0,30.33,East,98,0.0,-999.0,51,-99.99,,,0.00,weatherlink.com 1.10,2013-01-14 18:27:00,
2013-01-14 10:42:00,49.7,35.0,30.34,ESE,123,1.0,-999.0,57,-99.99,,,0.00,weatherlink.com 1.10,2013-01-14 18:42:00,
2013-01-14 10:57:00,51.4,37.0,30.34,ESE,121,0.0,-999.0,59,-99.99,,,0.00,weatherlink.com 1.10,2013-01-14 18:57:00,
2013-01-14 11:11:00,52.1,38.0,30.33,ESE,115,2.0,-999.0,58,-99.99,,,0.00,weatherlink.com 1.10,2013-01-14 19:11:00,
2013-01-14 11:27:00,52.5,38.0,30.33,East,100,0.0,-999.0,59,-99.99,,,0.00,weatherlink.com 1.10,2013-01-14 19:27:00,
2013-01-14 11:41:00,52.4,40.0,30.33,SE,146,1.0,-999.0,62,-99.99,,,0.00,weatherlink.com 1.10,2013-01-14 19:41:00,
2013-01-14 11:56:00,51.7,38.0,30.33,SSE,150,2.0,-999.0,60,-99.99,,,0.00,weatherlink.com 1.10,2013-01-14 19:56:00,
2013-01-14 12:12:00,50.4,38.0,30.32,South,184,2.0,-999.0,62,-99.99,,,0.00,weatherlink.com 1.10,2013-01-14 20:12:00,
2013-01-14 12:27:00,50.3,38.0,30.32,SSW,211,3.0,-999.0,62,-99.99,,,0.00,weatherlink.com 1.10,2013-01-14 20:27:00,
2013-01-14 12:42:00,51.0,39.0,30.31,SSW,208,1.0,-999.0,63,-99.99,,,0.00,weatherlink.com 1.10,2013-01-14 20:42:00,
2013-01-14 12:57:00,51.6,40.0,30.30,South,180,1.0,-999.0,64,-99.99,,,0.00,weatherlink.com 1.10,2013-01-14 20:57:00,
2013-01-14 13:11:00,51.8,40.0,30.31,SE,146,0.0,-999.0,64,-99.99,,,0.00,weatherlink.com 1.10,2013-01-14 21:11:00,
2013-01-14 13:26:00,51.5,41.0,30.30,South,188,2.0,-999.0,67,-99.99,,,0.00,weatherlink.com 1.10,2013-01-14 21:26:00,
2013-01-14 13:42:00,53.4,42.0,30.30,SSE,156,7.0,-999.0,65,-99.99,,,0.00,weatherlink.com 1.10,2013-01-14 21:42:00,
2013-01-14 13:56:00,54.2,41.0,30.31,SSE,156,5.0,-999.0,62,-99.99,,,0.00,weatherlink.com 1.10,2013-01-14 21:56:00,
2013-01-14 14:11:00,54.1,41.0,30.32,SE,146,6.0,-999.0,61,-99.99,,,0.00,weatherlink.com 1.10,2013-01-14 22:11:00,
2013-01-14 14:26:00,53.8,41.0,30.31,SSE,158,4.0,-999.0,62,-99.99,,,0.00,weatherlink.com 1.10,2013-01-14 22:26:00,
2013-01-14 14:43:00,53.9,41.0,30.32,SSE,167,2.0,-999.0,62,-99.99,,,0.00,weatherlink.com 1.10,2013-01-14 22:43:00,
2013-01-14 14:57:00,53.9,41.0,30.32,SSW,209,3.0,-999.0,61,-99.99,,,0.00,weatherlink.com 1.10,2013-01-14 22:57:00,
2013-01-14 15:11:00,53.1,40.0,30.32,SE,133,2.0,-999.0,62,-99.99,,,0.00,weatherlink.com 1.10,2013-01-14 23:11:00,
2013-01-14 15:27:00,52.2,40.0,30.32,South,190,1.0,-999.0,64,-99.99,,,0.00,weatherlink.com 1.10,2013-01-14 23:27:00,
2013-01-14 15:41:00,51.9,41.0,30.32,SSE,168,2.0,-999.0,67,-99.99,,,0.00,weatherlink.com 1.10,2013-01-14 23:41:00,
2013-01-14 16:15:00,51.3,40.0,30.32,SW,230,2.0,-999.0,65,-99.99,,,0.00,weatherlink.com 1.10,2013-01-15 00:15:00,
2013-01-14 16:26:00,51.0,40.0,30.32,WSW,252,3.0,-999.0,66,-99.99,,,0.00,weatherlink.com 1.10,2013-01-15 00:26:00,
2013-01-14 16:41:00,50.8,41.0,30.32,SSW,213,0.0,-999.0,69,-99.99,,,0.00,weatherlink.com 1.10,2013-01-15 00:41:00,
2013-01-14 16:56:00,50.2,40.0,30.33,SW,215,1.0,-999.0,68,-99.99,,,0.00,weatherlink.com 1.10,2013-01-15 00:56:00,
2013-01-14 17:11:00,50.2,40.0,30.32,SW,215,0.0,-999.0,69,-99.99,,,0.00,weatherlink.com 1.10,2013-01-15 01:11:00,
2013-01-14 17:26:00,50.0,40.0,30.32,SW,215,0.0,-999.0,68,-99.99,,,0.00,weatherlink.com 1.10,2013-01-15 01:26:00,
2013-01-14 17:41:00,48.2,38.0,30.32,SW,215,0.0,-999.0,69,-99.99,,,0.00,weatherlink.com 1.10,2013-01-15 01:41:00,
2013-01-14 17:56:00,45.6,37.0,30.33,SW,224,2.0,-999.0,73,-99.99,,,0.00,weatherlink.com 1.10,2013-01-15 01:56:00,
2013-01-14 18:11:00,43.8,37.0,30.32,WNW,289,2.0,-999.0,76,-99.99,,,0.00,weatherlink.com 1.10,2013-01-15 02:11:00,
2013-01-14 18:26:00,42.5,37.0,30.32,WNW,289,1.0,-999.0,80,-99.99,,,0.00,weatherlink.com 1.10,2013-01-15 02:26:00,
2013-01-14 18:41:00,41.4,36.0,30.32,WNW,289,3.0,-999.0,81,-99.99,,,0.00,weatherlink.com 1.10,2013-01-15 02:41:00,
2013-01-14 18:56:00,40.6,36.0,30.32,WNW,289,2.0,-999.0,83,-99.99,,,0.00,weatherlink.com 1.10,2013-01-15 02:56:00,
2013-01-14 19:11:00,39.9,36.0,30.32,WNW,289,2.0,-999.0,84,-99.99,,,0.00,weatherlink.com 1.10,2013-01-15 03:11:00,
2013-01-14 19:26:00,39.3,36.0,30.33,WNW,289,1.0,-999.0,86,-99.99,,,0.00,weatherlink.com 1.10,2013-01-15 03:26:00,
2013-01-14 19:41:00,39.1,36.0,30.33,WNW,290,3.0,-999.0,87,-99.99,,,0.00,weatherlink.com 1.10,2013-01-15 03:41:00,
2013-01-14 19:56:00,38.9,35.0,30.33,WNW,294,2.0,-999.0,87,-99.99,,,0.00,weatherlink.com 1.10,2013-01-15 03:56:00,
2013-01-14 20:11:00,38.7,36.0,30.33,NW,325,1.0,-999.0,88,-99.99,,,0.00,weatherlink.com 1.10,2013-01-15 04:11:00,
2013-01-14 20:26:00,38.5,35.0,30.33,NW,325,3.0,-999.0,88,-99.99,,,0.00,weatherlink.com 1.10,2013-01-15 04:26:00,
2013-01-14 20:41:00,38.3,35.0,30.34,NW,325,2.0,-999.0,88,-99.99,,,0.00,weatherlink.com 1.10,2013-01-15 04:41:00,
2013-01-14 20:56:00,38.0,35.0,30.34,NW,325,1.0,-999.0,89,-99.99,,,0.00,weatherlink.com 1.10,2013-01-15 04:56:00,
2013-01-14 21:11:00,37.7,35.0,30.33,NW,325,3.0,-999.0,89,-99.99,,,0.00,weatherlink.com 1.10,2013-01-15 05:11:00,
2013-01-14 21:26:00,37.2,34.0,30.33,NW,325,3.0,-999.0,88,-99.99,,,0.00,weatherlink.com 1.10,2013-01-15 05:26:00,
2013-01-14 21:41:00,36.7,34.0,30.33,NW,325,2.0,-999.0,88,-99.99,,,0.00,weatherlink.com 1.10,2013-01-15 05:41:00,
2013-01-14 21:56:00,36.4,33.0,30.33,NW,325,2.0,-999.0,87,-99.99,,,0.00,weatherlink.com 1.10,2013-01-15 05:56:00,
2013-01-14 22:11:00,36.2,33.0,30.33,NW,325,3.0,-999.0,87,-99.99,,,0.00,weatherlink.com 1.10,2013-01-15 06:11:00,
2013-01-14 22:26:00,36.0,32.0,30.33,NW,325,3.0,-999.0,86,-99.99,,,0.00,weatherlink.com 1.10,2013-01-15 06:26:00,
2013-01-14 22:41:00,35.8,32.0,30.33,NW,325,2.0,-999.0,86,-99.99,,,0.00,weatherlink.com 1.10,2013-01-15 06:41:00,
2013-01-14 22:56:00,35.6,32.0,30.33,NW,325,1.0,-999.0,85,-99.99,,,0.00,weatherlink.com 1.10,2013-01-15 06:56:00,
2013-01-14 23:11:00,35.5,31.0,30.33,NW,325,2.0,-999.0,85,-99.99,,,0.00,weatherlink.com 1.10,2013-01-15 07:11:00,
2013-01-14 23:26:00,35.4,31.0,30.33,NW,325,3.0,-999.0,85,-99.99,,,0.00,weatherlink.com 1.10,2013-01-15 07:26:00,
2013-01-14 23:41:00,35.5,31.0,30.34,NW,325,2.0,-999.0,84,-99.99,,,0.00,weatherlink.com 1.10,2013-01-15 07:41:00,
2013-01-14 23:56:00,35.4,31.0,30.33,NW,325,2.0,-999.0,83,-99.99,,,0.00,weatherlink.com 1.10,2013-01-15 07:56:00,